createdAt,value
2018-01-28T00:01:40.696Z,19.57
2018-01-28T00:04:09.012Z,18.57
2018-01-28T00:06:37.308Z,16.33
2018-01-28T00:09:05.638Z,18.77
2018-01-28T00:11:34.728Z,20.37
2018-01-28T00:14:03.086Z,18.50
2018-01-28T00:16:31.438Z,17.80
2018-01-28T00:18:59.770Z,18.53
2018-01-28T00:21:28.088Z,18.23
2018-01-28T00:23:56.359Z,19.40
2018-01-28T00:26:25.385Z,17.97
2018-01-28T00:28:53.661Z,17.70
2018-01-28T00:31:21.938Z,16.67
2018-01-28T00:33:50.199Z,19.73
2018-01-28T00:36:18.462Z,15.93
2018-01-28T00:38:46.791Z,15.80
2018-01-28T00:41:15.052Z,16.87
2018-01-28T00:43:43.328Z,17.73
2018-01-28T00:46:12.357Z,17.20
2018-01-28T00:48:40.628Z,19.07
2018-01-28T00:51:09.740Z,15.63
2018-01-28T00:53:38.779Z,16.43
2018-01-28T00:56:07.037Z,17.43
2018-01-28T00:58:35.361Z,17.43
2018-01-28T01:01:03.664Z,15.73
2018-01-28T01:03:31.999Z,17.67
2018-01-28T01:06:00.338Z,16.60
2018-01-28T01:08:28.615Z,18.57
2018-01-28T01:10:56.875Z,16.27
2018-01-28T01:13:25.167Z,19.07
2018-01-28T01:15:53.431Z,18.87
2018-01-28T01:18:21.710Z,19.30
2018-01-28T01:20:49.996Z,20.07
2018-01-28T01:23:18.335Z,21.37
2018-01-28T01:25:46.600Z,21.30
2018-01-28T01:28:15.632Z,17.20
2018-01-28T01:30:43.908Z,19.90
2018-01-28T01:33:12.188Z,19.03
2018-01-28T01:35:41.227Z,16.20
2018-01-28T01:38:09.503Z,15.40
2018-01-28T01:40:37.773Z,17.70
2018-01-28T01:43:06.799Z,16.00
2018-01-28T01:45:35.115Z,16.10
2018-01-28T01:48:04.468Z,14.43
2018-01-28T01:50:32.759Z,15.97
2018-01-28T01:53:01.821Z,17.50
2018-01-28T01:55:30.134Z,15.87
2018-01-28T01:57:58.392Z,12.97
2018-01-28T02:00:26.658Z,14.87
2018-01-28T02:02:54.924Z,14.33
2018-01-28T02:05:23.201Z,14.37
2018-01-28T02:07:51.468Z,17.03
2018-01-28T02:10:19.738Z,15.10
2018-01-28T02:12:47.995Z,17.80
2018-01-28T02:15:17.028Z,17.23
2018-01-28T02:17:45.324Z,15.83
2018-01-28T02:20:13.593Z,15.97
2018-01-28T02:22:41.923Z,17.20
2018-01-28T02:25:10.238Z,15.17
2018-01-28T02:27:38.500Z,14.67
2018-01-28T02:30:06.796Z,15.90
2018-01-28T02:32:35.063Z,15.03
2018-01-28T02:35:03.368Z,16.70
2018-01-28T02:37:31.636Z,14.90
2018-01-28T02:39:59.900Z,15.83
2018-01-28T02:42:28.960Z,14.67
2018-01-28T02:44:57.224Z,18.53
2018-01-28T02:47:25.500Z,14.67
2018-01-28T02:49:53.751Z,14.03
2018-01-28T02:52:22.015Z,14.47
2018-01-28T02:54:50.271Z,13.17
2018-01-28T02:57:18.533Z,15.13
2018-01-28T02:59:47.549Z,12.00
2018-01-28T03:02:16.592Z,13.17
2018-01-28T03:04:44.954Z,13.57
2018-01-28T03:07:13.247Z,15.20
2018-01-28T03:09:41.526Z,15.03
2018-01-28T03:12:09.806Z,15.63
2018-01-28T03:14:39.155Z,15.27
2018-01-28T03:17:07.423Z,14.30
2018-01-28T03:19:35.685Z,14.13
2018-01-28T03:22:03.961Z,13.53
2018-01-28T03:24:32.217Z,12.60
2018-01-28T03:27:00.501Z,12.97
2018-01-28T03:29:29.532Z,11.03
2018-01-28T03:31:57.793Z,10.67
2018-01-28T03:34:26.051Z,8.73
2018-01-28T03:36:55.092Z,8.07
2018-01-28T03:39:23.343Z,12.40
2018-01-28T03:41:52.039Z,9.67
2018-01-28T03:44:21.047Z,9.77
2018-01-28T03:46:50.081Z,8.03
2018-01-28T03:49:18.331Z,7.43
2018-01-28T03:51:46.619Z,7.63
2018-01-28T03:54:14.920Z,7.37
2018-01-28T03:56:43.985Z,6.43
2018-01-28T03:59:13.012Z,9.63
2018-01-28T04:01:42.036Z,7.90
2018-01-28T04:04:10.283Z,7.73
2018-01-28T04:06:38.553Z,9.80
2018-01-28T04:09:06.804Z,10.20
2018-01-28T04:11:35.095Z,7.53
2018-01-28T04:14:03.348Z,9.53
2018-01-28T04:16:31.603Z,7.97
2018-01-28T04:18:59.862Z,7.17
2018-01-28T04:21:28.127Z,7.20
2018-01-28T04:23:56.372Z,9.17
2018-01-28T04:26:24.648Z,7.40
2018-01-28T04:28:53.677Z,7.40
2018-01-28T04:31:21.955Z,9.20
2018-01-28T04:33:50.222Z,8.13
2018-01-28T04:36:18.464Z,7.13
2018-01-28T04:38:46.743Z,8.67
2018-01-28T04:41:14.995Z,6.97
2018-01-28T04:43:44.028Z,6.87
2018-01-28T04:46:12.298Z,6.77
2018-01-28T04:48:40.588Z,7.73
2018-01-28T04:51:08.844Z,8.20
2018-01-28T04:53:37.127Z,7.77
2018-01-28T04:56:05.387Z,6.20
2018-01-28T04:58:33.676Z,5.63
2018-01-28T05:01:01.947Z,7.10
2018-01-28T05:03:30.214Z,6.43
2018-01-28T05:08:33.683Z,6.13
2018-01-28T05:11:01.952Z,5.70
2018-01-28T05:13:30.233Z,5.50
2018-01-28T05:15:59.269Z,6.50
2018-01-28T05:18:27.555Z,7.00
2018-01-28T05:20:55.800Z,5.77
2018-01-28T05:23:24.059Z,6.07
2018-01-28T05:25:52.320Z,7.13
2018-01-28T05:28:20.621Z,5.90
2018-01-28T05:30:48.876Z,7.30
2018-01-28T05:33:17.913Z,6.07
2018-01-28T05:35:46.176Z,6.53
2018-01-28T05:38:15.230Z,6.53
2018-01-28T05:40:43.517Z,6.37
2018-01-28T05:43:11.787Z,5.33
2018-01-28T05:45:40.056Z,8.00
2018-01-28T05:48:08.335Z,5.40
2018-01-28T05:50:36.594Z,6.73
2018-01-28T05:53:05.790Z,7.43
2018-01-28T05:55:34.083Z,6.53
2018-01-28T05:58:02.328Z,6.93
2018-01-28T06:00:30.601Z,4.83
2018-01-28T06:02:59.643Z,5.70
2018-01-28T06:05:27.911Z,5.23
2018-01-28T06:07:56.162Z,6.67
2018-01-28T06:10:24.430Z,6.97
2018-01-28T06:12:53.440Z,6.70
2018-01-28T06:15:21.739Z,6.40
2018-01-28T06:17:50.019Z,6.53
2018-01-28T06:20:18.298Z,7.10
2018-01-28T06:22:46.628Z,5.07
2018-01-28T06:25:14.923Z,7.27
2018-01-28T06:27:43.941Z,5.73
2018-01-28T06:30:12.213Z,5.57
2018-01-28T06:32:41.260Z,5.43
2018-01-28T06:35:09.536Z,6.27
2018-01-28T06:37:37.921Z,7.87
2018-01-28T06:40:06.196Z,5.83
2018-01-28T06:42:35.236Z,5.80
2018-01-28T06:45:03.507Z,6.03
2018-01-28T06:47:31.763Z,5.20
2018-01-28T06:50:00.033Z,6.13
2018-01-28T06:52:28.287Z,6.12
2018-01-28T06:54:56.550Z,6.70
2018-01-28T06:57:25.560Z,6.17
2018-01-28T06:59:53.848Z,5.10
2018-01-28T07:02:22.964Z,5.93
2018-01-28T07:04:52.072Z,5.73
2018-01-28T07:07:20.364Z,5.53
2018-01-28T07:09:48.709Z,4.67
2018-01-28T07:12:17.784Z,5.00
2018-01-28T07:14:46.033Z,6.70
2018-01-28T07:17:15.078Z,6.63
2018-01-28T07:19:43.337Z,6.07
2018-01-28T07:22:12.370Z,5.43
2018-01-28T07:24:40.636Z,7.27
2018-01-28T07:27:09.710Z,5.97
2018-01-28T07:29:37.954Z,3.97
2018-01-28T07:32:06.215Z,7.27
2018-01-28T07:34:35.247Z,5.83
2018-01-28T07:37:03.524Z,4.40
2018-01-28T07:39:32.530Z,6.83
2018-01-28T07:42:00.804Z,4.17
2018-01-28T07:44:29.926Z,6.27
2018-01-28T07:46:58.952Z,4.17
2018-01-28T07:49:27.204Z,7.70
2018-01-28T07:51:56.245Z,3.87
2018-01-28T07:54:24.498Z,4.70
2018-01-28T07:56:52.816Z,4.83
2018-01-28T07:59:21.846Z,3.10
2018-01-28T08:01:50.131Z,4.63
2018-01-28T08:04:18.388Z,3.97
2018-01-28T08:06:47.416Z,4.70
2018-01-28T08:09:15.667Z,4.53
2018-01-28T08:11:50.090Z,4.67
2018-01-28T08:14:19.705Z,3.53
2018-01-28T08:16:48.218Z,4.20
2018-01-28T08:19:16.511Z,4.50
2018-01-28T08:21:45.741Z,3.60
2018-01-28T08:24:14.380Z,4.27
2018-01-28T08:26:47.654Z,3.93
2018-01-28T08:29:18.596Z,4.63
2018-01-28T08:31:47.649Z,5.13
2018-01-28T08:34:16.628Z,3.53
2018-01-28T08:36:44.916Z,3.73
2018-01-28T08:39:13.959Z,3.50
2018-01-28T08:41:42.269Z,3.70
2018-01-28T08:44:10.519Z,3.70
2018-01-28T08:46:38.763Z,3.83
2018-01-28T08:49:07.794Z,3.10
2018-01-28T08:51:36.040Z,3.17
2018-01-28T08:54:05.066Z,3.17
2018-01-28T08:56:33.371Z,3.00
2018-01-28T08:59:01.663Z,3.50
2018-01-28T09:01:29.964Z,4.37
2018-01-28T09:03:58.268Z,4.80
2018-01-28T09:06:27.253Z,4.57
2018-01-28T09:08:55.835Z,4.03
2018-01-28T09:11:24.328Z,3.50
2018-01-28T09:13:53.017Z,2.77
2018-01-28T09:16:22.317Z,3.97
2018-01-28T09:18:51.581Z,4.47
2018-01-28T09:21:20.067Z,2.90
2018-01-28T09:23:48.646Z,4.23
2018-01-28T09:26:17.517Z,2.53
2018-01-28T09:28:46.337Z,2.30
2018-01-28T09:31:15.807Z,3.00
2018-01-28T09:33:44.780Z,3.47
2018-01-28T09:36:13.508Z,3.03
2018-01-28T09:38:43.227Z,2.00
2018-01-28T09:41:12.609Z,2.73
2018-01-28T09:43:41.779Z,2.80
2018-01-28T09:46:10.556Z,2.33
2018-01-28T09:48:39.521Z,2.27
2018-01-28T09:51:09.087Z,2.40
2018-01-28T09:53:38.271Z,2.30
2018-01-28T09:56:06.963Z,2.50
2018-01-28T09:58:35.873Z,2.47
2018-01-28T10:01:04.501Z,3.33
2018-01-28T10:03:33.081Z,2.67
2018-01-28T10:06:01.455Z,2.40
2018-01-28T10:08:29.933Z,1.97
2018-01-28T10:10:59.114Z,1.83
2018-01-28T10:13:27.545Z,2.07
2018-01-28T10:15:56.192Z,2.43
2018-01-28T10:18:25.030Z,1.97
2018-01-28T10:20:53.458Z,1.87
2018-01-28T10:23:22.023Z,2.93
2018-01-28T10:25:50.548Z,1.70
2018-01-28T10:28:19.106Z,1.90
2018-01-28T10:30:48.357Z,3.87
2018-01-28T10:33:16.965Z,2.70
2018-01-28T10:35:45.673Z,1.80
2018-01-28T10:38:14.388Z,1.90
2018-01-28T10:40:42.982Z,1.93
2018-01-28T10:43:11.489Z,2.33
2018-01-28T10:45:40.042Z,1.60
2018-01-28T10:48:08.533Z,4.17
2018-01-28T10:50:38.464Z,1.70
2018-01-28T10:53:07.753Z,2.33
2018-01-28T10:55:36.308Z,1.70
2018-01-28T10:58:05.516Z,1.80
2018-01-28T11:00:33.998Z,1.90
2018-01-28T11:03:02.375Z,1.77
2018-01-28T11:05:30.803Z,3.00
2018-01-28T11:08:00.285Z,1.40
2018-01-28T11:10:29.030Z,2.23
2018-01-28T11:12:57.427Z,4.07
2018-01-28T11:15:26.720Z,1.70
2018-01-28T11:17:55.003Z,2.00
2018-01-28T11:20:23.442Z,4.13
2018-01-28T11:22:52.018Z,1.80
2018-01-28T11:25:21.529Z,1.53
2018-01-28T11:27:50.777Z,1.70
2018-01-28T11:30:19.430Z,2.20
2018-01-28T11:32:48.838Z,2.10
2018-01-28T11:35:17.368Z,1.73
2018-01-28T11:37:46.156Z,2.10
2018-01-28T11:40:14.894Z,1.93
2018-01-28T11:42:44.393Z,2.13
2018-01-28T11:45:14.312Z,2.23
2018-01-28T11:47:42.999Z,2.07
2018-01-28T11:50:11.849Z,2.27
2018-01-28T11:52:41.496Z,1.47
2018-01-28T11:55:10.912Z,1.90
2018-01-28T11:57:39.381Z,1.70
2018-01-28T12:00:08.381Z,2.13
2018-01-28T12:02:36.811Z,1.73
2018-01-28T12:05:06.203Z,1.37
2018-01-28T12:07:34.812Z,2.83
2018-01-28T12:10:03.741Z,1.60
2018-01-28T12:12:32.962Z,2.57
2018-01-28T12:15:01.493Z,1.60
2018-01-28T12:17:30.393Z,1.83
2018-01-28T12:19:58.992Z,2.23
2018-01-28T12:22:27.873Z,1.50
2018-01-28T12:24:56.730Z,3.20
2018-01-28T12:27:25.771Z,1.87
2018-01-28T12:29:55.335Z,1.37
2018-01-28T12:32:24.829Z,1.50
2018-01-28T12:34:53.683Z,4.30
2018-01-28T12:37:23.274Z,2.60
2018-01-28T12:39:51.977Z,2.77
2018-01-28T12:42:21.358Z,2.63
2018-01-28T12:44:49.927Z,2.03
2018-01-28T12:47:19.099Z,1.80
2018-01-28T12:49:47.384Z,1.83
2018-01-28T12:52:15.684Z,1.43
2018-01-28T12:54:44.065Z,2.20
2018-01-28T12:57:12.405Z,1.20
2018-01-28T12:59:41.461Z,1.30
2018-01-28T13:02:09.828Z,1.67
2018-01-28T13:04:38.191Z,2.17
2018-01-28T13:07:07.326Z,2.20
2018-01-28T13:09:35.659Z,1.63
2018-01-28T13:12:04.125Z,2.93
2018-01-28T13:14:32.570Z,1.20
2018-01-28T13:17:01.634Z,1.40
2018-01-28T13:19:30.005Z,1.87
2018-01-28T13:21:58.388Z,2.43
2018-01-28T13:24:27.779Z,1.73
2018-01-28T13:26:56.193Z,1.50
2018-01-28T13:29:24.586Z,2.17
2018-01-28T13:31:52.924Z,2.77
2018-01-28T13:34:21.308Z,1.60
2018-01-28T13:36:49.611Z,1.60
2018-01-28T13:39:18.819Z,1.27
2018-01-28T13:41:47.148Z,1.40
2018-01-28T13:44:16.298Z,1.70
2018-01-28T13:46:44.616Z,1.60
2018-01-28T13:49:13.195Z,1.83
2018-01-28T13:51:42.339Z,1.57
2018-01-28T13:54:11.619Z,2.60
2018-01-28T13:56:40.000Z,1.43
2018-01-28T13:59:08.378Z,1.60
2018-01-28T14:01:37.797Z,1.97
2018-01-28T14:04:06.454Z,1.87
2018-01-28T14:06:35.857Z,1.50
2018-01-28T14:09:04.225Z,2.60
2018-01-28T14:11:32.865Z,3.10
2018-01-28T14:14:03.269Z,2.13
2018-01-28T14:16:33.006Z,2.90
2018-01-28T14:19:03.980Z,3.30
2018-01-28T14:21:33.821Z,2.57
2018-01-28T14:24:03.645Z,1.50
2018-01-28T14:26:32.025Z,1.93
2018-01-28T14:29:01.361Z,1.50
2018-01-28T14:31:32.515Z,1.83
2018-01-28T14:34:01.076Z,1.20
2018-01-28T14:36:30.338Z,1.80
2018-01-28T14:38:58.715Z,2.73
2018-01-28T14:41:27.361Z,1.20
2018-01-28T14:43:56.040Z,1.40
2018-01-28T14:46:25.618Z,1.30
2018-01-28T14:48:54.206Z,1.10
2018-01-28T14:51:23.707Z,6.83
2018-01-28T14:53:52.481Z,1.37
2018-01-28T14:56:21.176Z,1.00
2018-01-28T14:58:49.858Z,1.60
2018-01-28T15:01:18.485Z,1.10
2018-01-28T15:03:47.089Z,1.40
2018-01-28T15:06:16.473Z,1.40
2018-01-28T15:08:45.303Z,1.37
2018-01-28T15:11:13.990Z,1.40
2018-01-28T15:13:42.907Z,1.40
2018-01-28T15:16:12.534Z,1.43
2018-01-28T15:18:41.923Z,1.97
2018-01-28T15:21:10.520Z,2.00
2018-01-28T15:23:39.267Z,1.97
2018-01-28T15:26:07.851Z,1.70
2018-01-28T15:28:37.105Z,1.87
2018-01-28T15:31:05.725Z,1.20
2018-01-28T15:33:34.364Z,1.20
2018-01-28T15:36:03.928Z,2.20
2018-01-28T15:38:32.641Z,1.50
2018-01-28T15:41:02.175Z,2.30
2018-01-28T15:43:30.537Z,2.23
2018-01-28T15:45:58.924Z,2.43
2018-01-28T15:48:27.599Z,2.23
2018-01-28T15:50:56.408Z,2.37
2018-01-28T15:53:24.718Z,2.10
2018-01-28T15:55:53.012Z,2.30
2018-01-28T15:58:21.359Z,1.83
2018-01-28T16:00:50.612Z,1.90
2018-01-28T16:03:18.877Z,2.10
2018-01-28T16:05:47.205Z,2.23
2018-01-28T16:08:15.607Z,2.77
2018-01-28T16:10:43.917Z,3.17
2018-01-28T16:13:13.021Z,2.43
2018-01-28T16:15:42.071Z,2.93
2018-01-28T16:18:10.361Z,2.13
2018-01-28T16:20:38.660Z,2.93
2018-01-28T16:23:07.006Z,2.37
2018-01-28T16:25:36.292Z,2.43
2018-01-28T16:28:04.704Z,1.80
2018-01-28T16:30:33.803Z,2.83
2018-01-28T16:33:02.413Z,3.33
2018-01-28T16:35:30.767Z,2.93
2018-01-28T16:37:59.072Z,2.47
2018-01-28T16:40:27.445Z,1.70
2018-01-28T16:42:55.850Z,2.90
2018-01-28T16:45:24.218Z,2.53
2018-01-28T16:47:52.624Z,2.40
2018-01-28T16:50:20.992Z,2.50
2018-01-28T16:52:49.257Z,3.07
2018-01-28T16:55:17.552Z,2.27
2018-01-28T16:57:46.129Z,3.07
2018-01-28T17:00:15.198Z,3.23
2018-01-28T17:02:43.539Z,3.37
2018-01-28T17:05:12.706Z,4.70
2018-01-28T17:07:41.044Z,3.23
2018-01-28T17:10:09.364Z,3.43
2018-01-28T17:12:37.812Z,3.80
2018-01-28T17:15:06.964Z,2.93
2018-01-28T17:17:35.339Z,2.60
2018-01-28T17:20:03.635Z,3.87
2018-01-28T17:22:31.997Z,3.23
2018-01-28T17:25:01.059Z,3.33
2018-01-28T17:27:29.384Z,3.47
2018-01-28T17:29:57.713Z,3.40
2018-01-28T17:32:26.043Z,5.80
2018-01-28T17:34:54.487Z,5.20
2018-01-28T17:37:22.838Z,9.67
2018-01-28T17:39:51.159Z,5.93
2018-01-28T17:42:19.599Z,6.37
2018-01-28T17:44:47.919Z,7.80
2018-01-28T17:47:17.128Z,4.23
2018-01-28T17:49:46.302Z,5.23
2018-01-28T17:52:14.679Z,18.73
2018-01-28T17:54:43.083Z,8.90
2018-01-28T17:57:11.401Z,7.53
2018-01-28T17:59:39.768Z,4.40
2018-01-28T18:02:08.227Z,7.40
2018-01-28T18:04:36.567Z,6.43
2018-01-28T18:07:04.972Z,5.30
2018-01-28T18:09:33.295Z,6.37
2018-01-28T18:12:02.340Z,3.30
2018-01-28T18:14:30.646Z,4.20
2018-01-28T18:16:58.923Z,3.83
2018-01-28T18:19:27.295Z,4.83
2018-01-28T18:21:55.575Z,4.63
2018-01-28T18:24:23.920Z,4.40
2018-01-28T18:26:52.291Z,2.93
2018-01-28T18:29:20.624Z,3.83
2018-01-28T18:31:49.707Z,3.47
2018-01-28T18:34:18.063Z,4.17
2018-01-28T18:36:46.399Z,5.97
2018-01-28T18:39:14.804Z,3.23
2018-01-28T18:41:43.131Z,4.47
2018-01-28T18:44:11.460Z,3.67
2018-01-28T18:46:39.778Z,7.43
2018-01-28T18:49:08.864Z,3.70
2018-01-28T18:56:24.354Z,4.27
2018-01-28T18:58:52.688Z,3.23
2018-01-28T19:01:21.749Z,3.33
2018-01-28T19:03:50.111Z,3.40
2018-01-28T19:06:19.258Z,4.00
2018-01-28T19:08:47.613Z,3.70
2018-01-28T19:11:16.797Z,4.03
2018-01-28T19:13:45.111Z,3.87
2018-01-28T19:16:13.534Z,4.43
2018-01-28T19:18:41.955Z,3.10
2018-01-28T19:21:10.321Z,7.00
2018-01-28T19:23:38.599Z,5.13
2018-01-28T19:26:06.984Z,6.50
2018-01-28T19:28:36.078Z,3.00
2018-01-28T19:31:05.136Z,2.93
2018-01-28T19:33:33.446Z,2.57
2018-01-28T19:36:01.786Z,3.13
2018-01-28T19:38:30.176Z,2.30
2018-01-28T19:40:59.275Z,3.83
2018-01-28T19:43:28.353Z,7.70
2018-01-28T19:45:56.732Z,3.60
2018-01-28T19:48:25.029Z,2.90
2018-01-28T19:50:54.228Z,3.00
2018-01-28T19:53:22.598Z,2.73
2018-01-28T19:55:51.670Z,3.37
2018-01-28T19:58:20.785Z,3.77
2018-01-28T20:00:49.879Z,3.07
2018-01-28T20:03:18.908Z,2.40
2018-01-28T20:05:49.291Z,2.60
2018-01-28T20:08:17.563Z,3.43
2018-01-28T20:10:45.935Z,2.90
2018-01-28T20:13:14.263Z,2.67
2018-01-28T20:15:42.642Z,2.53
2018-01-28T20:18:11.172Z,6.10
2018-01-28T20:20:39.501Z,3.10
2018-01-28T20:23:07.823Z,2.50
2018-01-28T20:25:36.158Z,2.10
2018-01-28T20:28:05.247Z,2.07
2018-01-28T20:30:33.541Z,2.90
2018-01-28T20:33:02.636Z,2.20
2018-01-28T20:35:30.961Z,2.37
2018-01-28T20:37:59.218Z,2.40
2018-01-28T20:40:27.783Z,5.00
2018-01-28T20:42:56.103Z,2.83
2018-01-28T20:45:24.422Z,2.07
2018-01-28T20:47:53.545Z,2.50
2018-01-28T20:50:21.930Z,2.90
2018-01-28T20:52:50.228Z,2.27
2018-01-28T20:55:18.553Z,2.17
2018-01-28T20:57:46.894Z,2.20
2018-01-28T21:00:15.664Z,3.13
2018-01-28T21:02:43.991Z,3.73
2018-01-28T21:05:13.124Z,3.23
2018-01-28T21:07:41.632Z,3.03
2018-01-28T21:10:10.007Z,3.10
2018-01-28T21:12:38.299Z,3.93
2018-01-28T21:15:06.649Z,3.87
2018-01-28T21:17:35.695Z,2.53
2018-01-28T21:20:04.054Z,2.60
2018-01-28T21:22:33.175Z,3.00
2018-01-28T21:25:01.454Z,4.03
2018-01-28T21:27:30.564Z,2.50
2018-01-28T21:29:59.617Z,2.97
2018-01-28T21:32:28.045Z,3.63
2018-01-28T21:34:56.422Z,2.30
2018-01-28T21:37:24.833Z,2.77
2018-01-28T21:39:54.005Z,2.40
2018-01-28T21:42:23.281Z,3.93
2018-01-28T21:44:51.708Z,4.10
2018-01-28T21:47:20.051Z,2.43
2018-01-28T21:49:48.383Z,2.57
2018-01-28T21:52:16.741Z,2.70
2018-01-28T21:54:45.084Z,2.60
2018-01-28T21:57:13.463Z,2.17
2018-01-28T21:59:41.797Z,3.13
2018-01-28T22:02:10.884Z,2.50
2018-01-28T22:04:39.955Z,2.30
2018-01-28T22:07:08.272Z,2.67
2018-01-28T22:09:36.683Z,2.40
2018-01-28T22:12:05.039Z,5.83
2018-01-28T22:14:33.409Z,3.57
2018-01-28T22:17:01.804Z,2.43
2018-01-28T22:19:30.145Z,2.27
2018-01-28T22:21:58.521Z,2.60
2018-01-28T22:24:26.821Z,2.60
2018-01-28T22:26:55.184Z,3.30
2018-01-28T22:29:24.615Z,3.17
2018-01-28T22:31:52.994Z,2.83
2018-01-28T22:34:21.313Z,2.60
2018-01-28T22:36:50.617Z,2.30
2018-01-28T22:39:18.942Z,3.70
2018-01-28T22:41:48.011Z,3.10
2018-01-28T22:44:16.303Z,3.60
2018-01-28T22:46:44.612Z,2.50
2018-01-28T22:49:12.884Z,3.60
2018-01-28T22:51:41.190Z,3.33
2018-01-28T22:54:10.682Z,2.70
2018-01-28T22:56:38.987Z,2.87
2018-01-28T22:59:07.251Z,2.43
2018-01-28T23:01:35.564Z,3.17
2018-01-28T23:04:03.849Z,3.53
2018-01-28T23:06:32.137Z,3.50
2018-01-28T23:09:00.408Z,5.37
2018-01-28T23:11:28.689Z,3.90
2018-01-28T23:13:56.990Z,3.07
2018-01-28T23:16:25.255Z,3.43
2018-01-28T23:18:53.569Z,3.70
2018-01-28T23:21:21.824Z,3.50
2018-01-28T23:23:50.161Z,5.87
2018-01-28T23:26:18.457Z,3.43
2018-01-28T23:28:46.724Z,4.50
2018-01-28T23:31:14.988Z,4.03
2018-01-28T23:33:43.260Z,4.03
2018-01-28T23:36:12.273Z,4.03
2018-01-28T23:38:40.531Z,6.23
2018-01-28T23:41:08.808Z,5.73
2018-01-28T23:43:37.077Z,4.67
2018-01-28T23:46:06.051Z,4.67
2018-01-28T23:48:34.311Z,4.70
2018-01-28T23:51:03.349Z,3.90
2018-01-28T23:53:31.644Z,7.20
2018-01-28T23:55:59.896Z,6.40
2018-01-28T23:58:29.667Z,5.20
